sensor_id;sensor_type;location;lat;lon;timestamp;temperature;humidity
2729;DHT22;1372;47.956;7.830;2023-03-20T00:00:31;8.30;99.90
2729;DHT22;1372;47.956;7.830;2023-03-20T00:03:06;8.30;99.90
2729;DHT22;1372;47.956;7.830;2023-03-20T00:05:41;8.30;99.90
2729;DHT22;1372;47.956;7.830;2023-03-20T00:08:15;8.30;99.90
2729;DHT22;1372;47.956;7.830;2023-03-20T00:10:49;8.30;99.90
2729;DHT22;1372;47.956;7.830;2023-03-20T00:13:26;8.20;99.90
2729;DHT22;1372;47.956;7.830;2023-03-20T00:16:00;8.20;99.90
2729;DHT22;1372;47.956;7.830;2023-03-20T00:18:34;8.20;99.90
2729;DHT22;1372;47.956;7.830;2023-03-20T00:21:10;8.20;99.90
2729;DHT22;1372;47.956;7.830;2023-03-20T00:23:48;8.30;99.90
2729;DHT22;1372;47.956;7.830;2023-03-20T00:26:23;8.30;99.90
2729;DHT22;1372;47.956;7.830;2023-03-20T00:28:59;8.30;99.90
2729;DHT22;1372;47.956;7.830;2023-03-20T00:31:36;8.40;99.90
2729;DHT22;1372;47.956;7.830;2023-03-20T00:34:13;8.50;99.90
2729;DHT22;1372;47.956;7.830;2023-03-20T00:36:47;8.50;99.90
2729;DHT22;1372;47.956;7.830;2023-03-20T00:39:21;8.50;99.90
2729;DHT22;1372;47.956;7.830;2023-03-20T00:41:56;8.40;99.90
2729;DHT22;1372;47.956;7.830;2023-03-20T00:44:35;8.40;99.90
2729;DHT22;1372;47.956;7.830;2023-03-20T00:47:12;8.40;99.90
2729;DHT22;1372;47.956;7.830;2023-03-20T00:49:49;8.30;99.90
2729;DHT22;1372;47.956;7.830;2023-03-20T00:52:24;8.40;99.90
2729;DHT22;1372;47.956;7.830;2023-03-20T00:55:00;8.40;99.90
2729;DHT22;1372;47.956;7.830;2023-03-20T00:57:39;8.60;99.90
2729;DHT22;1372;47.956;7.830;2023-03-20T01:00:26;8.60;99.90
2729;DHT22;1372;47.956;7.830;2023-03-20T01:03:14;8.70;99.90
2729;DHT22;1372;47.956;7.830;2023-03-20T01:05:51;8.70;99.90
2729;DHT22;1372;47.956;7.830;2023-03-20T01:08:26;8.60;99.90
2729;DHT22;1372;47.956;7.830;2023-03-20T01:10:59;8.60;99.90
2729;DHT22;1372;47.956;7.830;2023-03-20T01:13:32;8.60;99.90
2729;DHT22;1372;47.956;7.830;2023-03-20T01:16:18;8.60;99.90
2729;DHT22;1372;47.956;7.830;2023-03-20T01:18:53;8.60;99.90
2729;DHT22;1372;47.956;7.830;2023-03-20T01:21:26;8.60;99.90
2729;DHT22;1372;47.956;7.830;2023-03-20T01:24:02;8.70;99.90
2729;DHT22;1372;47.956;7.830;2023-03-20T01:26:38;8.60;99.90
2729;DHT22;1372;47.956;7.830;2023-03-20T01:29:17;8.70;99.90
2729;DHT22;1372;47.956;7.830;2023-03-20T01:31:57;8.60;99.90
2729;DHT22;1372;47.956;7.830;2023-03-20T01:34:32;8.70;99.90
2729;DHT22;1372;47.956;7.830;2023-03-20T01:37:12;8.60;99.90
2729;DHT22;1372;47.956;7.830;2023-03-20T01:39:45;8.60;99.90
2729;DHT22;1372;47.956;7.830;2023-03-20T01:42:19;8.60;99.90
2729;DHT22;1372;47.956;7.830;2023-03-20T01:44:53;8.70;99.90
2729;DHT22;1372;47.956;7.830;2023-03-20T01:47:30;8.70;99.90
2729;DHT22;1372;47.956;7.830;2023-03-20T01:50:26;8.70;99.90
2729;DHT22;1372;47.956;7.830;2023-03-20T01:53:07;8.80;99.90
2729;DHT22;1372;47.956;7.830;2023-03-20T01:55:44;8.80;99.90
2729;DHT22;1372;47.956;7.830;2023-03-20T01:58:22;8.80;99.90
2729;DHT22;1372;47.956;7.830;2023-03-20T02:00:58;8.80;99.90
2729;DHT22;1372;47.956;7.830;2023-03-20T02:03:33;8.70;99.90
2729;DHT22;1372;47.956;7.830;2023-03-20T02:06:07;8.70;99.90
2729;DHT22;1372;47.956;7.830;2023-03-20T02:08:43;8.60;99.90
2729;DHT22;1372;47.956;7.830;2023-03-20T02:11:23;8.60;99.90
2729;DHT22;1372;47.956;7.830;2023-03-20T02:13:58;8.50;99.90
2729;DHT22;1372;47.956;7.830;2023-03-20T02:16:31;8.60;99.90
2729;DHT22;1372;47.956;7.830;2023-03-20T02:19:11;8.70;99.90
2729;DHT22;1372;47.956;7.830;2023-03-20T02:22:18;8.80;99.90
2729;DHT22;1372;47.956;7.830;2023-03-20T02:29:11;9.00;99.90
2729;DHT22;1372;47.956;7.830;2023-03-20T02:32:51;8.90;99.90
2729;DHT22;1372;47.956;7.830;2023-03-20T02:36:12;8.80;99.90
2729;DHT22;1372;47.956;7.830;2023-03-20T02:39:09;8.80;99.90
2729;DHT22;1372;47.956;7.830;2023-03-20T02:41:52;8.70;99.90
2729;DHT22;1372;47.956;7.830;2023-03-20T02:44:34;8.60;99.90
2729;DHT22;1372;47.956;7.830;2023-03-20T02:47:16;8.70;99.90
2729;DHT22;1372;47.956;7.830;2023-03-20T02:49:56;8.70;99.90
2729;DHT22;1372;47.956;7.830;2023-03-20T02:52:42;8.80;99.90
2729;DHT22;1372;47.956;7.830;2023-03-20T02:55:30;8.70;99.90
2729;DHT22;1372;47.956;7.830;2023-03-20T02:58:10;8.70;99.90
2729;DHT22;1372;47.956;7.830;2023-03-20T03:00:51;8.80;99.90
2729;DHT22;1372;47.956;7.830;2023-03-20T03:03:32;8.70;99.90
2729;DHT22;1372;47.956;7.830;2023-03-20T03:06:16;8.80;99.90
2729;DHT22;1372;47.956;7.830;2023-03-20T03:08:53;8.80;99.90
2729;DHT22;1372;47.956;7.830;2023-03-20T03:11:30;8.80;99.90
2729;DHT22;1372;47.956;7.830;2023-03-20T03:14:06;8.90;99.90
2729;DHT22;1372;47.956;7.830;2023-03-20T03:16:40;9.00;99.90
2729;DHT22;1372;47.956;7.830;2023-03-20T03:19:22;9.00;99.90
2729;DHT22;1372;47.956;7.830;2023-03-20T03:21:55;8.90;99.90
2729;DHT22;1372;47.956;7.830;2023-03-20T03:24:30;8.80;99.90
2729;DHT22;1372;47.956;7.830;2023-03-20T03:27:17;8.80;99.90
2729;DHT22;1372;47.956;7.830;2023-03-20T03:29:54;8.70;99.90
2729;DHT22;1372;47.956;7.830;2023-03-20T03:32:30;8.80;99.90
2729;DHT22;1372;47.956;7.830;2023-03-20T03:35:06;8.80;99.90
2729;DHT22;1372;47.956;7.830;2023-03-20T03:37:52;8.80;99.90
2729;DHT22;1372;47.956;7.830;2023-03-20T03:40:34;8.80;99.90
2729;DHT22;1372;47.956;7.830;2023-03-20T03:43:17;8.80;99.90
2729;DHT22;1372;47.956;7.830;2023-03-20T03:45:55;8.70;99.90
2729;DHT22;1372;47.956;7.830;2023-03-20T03:48:32;8.60;99.90
2729;DHT22;1372;47.956;7.830;2023-03-20T03:51:10;8.60;99.90
2729;DHT22;1372;47.956;7.830;2023-03-20T03:53:51;8.70;99.90
2729;DHT22;1372;47.956;7.830;2023-03-20T03:56:32;8.70;99.90
2729;DHT22;1372;47.956;7.830;2023-03-20T03:59:14;8.80;99.90
2729;DHT22;1372;47.956;7.830;2023-03-20T04:01:50;8.90;99.90
2729;DHT22;1372;47.956;7.830;2023-03-20T04:04:25;8.80;99.90
2729;DHT22;1372;47.956;7.830;2023-03-20T04:06:59;8.90;99.90
2729;DHT22;1372;47.956;7.830;2023-03-20T04:09:32;8.90;99.90
2729;DHT22;1372;47.956;7.830;2023-03-20T04:12:07;8.90;99.90
2729;DHT22;1372;47.956;7.830;2023-03-20T04:15:00;8.90;99.90
2729;DHT22;1372;47.956;7.830;2023-03-20T04:17:37;9.00;99.90
2729;DHT22;1372;47.956;7.830;2023-03-20T04:20:11;8.90;99.90
2729;DHT22;1372;47.956;7.830;2023-03-20T04:22:45;8.80;99.90
2729;DHT22;1372;47.956;7.830;2023-03-20T04:25:20;8.90;99.90
2729;DHT22;1372;47.956;7.830;2023-03-20T04:27:54;8.90;99.90
2729;DHT22;1372;47.956;7.830;2023-03-20T04:30:30;8.90;99.90
2729;DHT22;1372;47.956;7.830;2023-03-20T04:33:06;8.80;99.90
2729;DHT22;1372;47.956;7.830;2023-03-20T04:35:38;8.80;99.90
2729;DHT22;1372;47.956;7.830;2023-03-20T04:38:11;8.90;99.90
2729;DHT22;1372;47.956;7.830;2023-03-20T04:40:44;8.80;99.90
2729;DHT22;1372;47.956;7.830;2023-03-20T04:43:19;8.90;99.90
2729;DHT22;1372;47.956;7.830;2023-03-20T04:45:54;8.90;99.90
2729;DHT22;1372;47.956;7.830;2023-03-20T04:48:28;8.90;99.90
2729;DHT22;1372;47.956;7.830;2023-03-20T04:51:01;8.90;99.90
2729;DHT22;1372;47.956;7.830;2023-03-20T04:53:33;8.90;99.90
2729;DHT22;1372;47.956;7.830;2023-03-20T04:56:05;8.90;99.90
2729;DHT22;1372;47.956;7.830;2023-03-20T04:58:38;8.90;99.90
2729;DHT22;1372;47.956;7.830;2023-03-20T05:01:10;8.90;99.90
2729;DHT22;1372;47.956;7.830;2023-03-20T05:03:40;8.90;99.90
2729;DHT22;1372;47.956;7.830;2023-03-20T05:06:11;8.90;99.90
2729;DHT22;1372;47.956;7.830;2023-03-20T05:08:41;8.90;99.90
2729;DHT22;1372;47.956;7.830;2023-03-20T05:11:11;8.90;99.90
2729;DHT22;1372;47.956;7.830;2023-03-20T05:13:42;8.90;99.90
2729;DHT22;1372;47.956;7.830;2023-03-20T05:16:14;9.00;99.90
2729;DHT22;1372;47.956;7.830;2023-03-20T05:18:44;8.90;99.90
2729;DHT22;1372;47.956;7.830;2023-03-20T05:21:17;8.90;99.90
2729;DHT22;1372;47.956;7.830;2023-03-20T05:23:47;8.90;99.90
2729;DHT22;1372;47.956;7.830;2023-03-20T05:26:18;8.90;99.90
2729;DHT22;1372;47.956;7.830;2023-03-20T05:28:48;8.80;99.90
2729;DHT22;1372;47.956;7.830;2023-03-20T05:31:19;8.80;99.90
2729;DHT22;1372;47.956;7.830;2023-03-20T05:33:50;8.80;99.90
2729;DHT22;1372;47.956;7.830;2023-03-20T05:36:22;8.80;99.90
2729;DHT22;1372;47.956;7.830;2023-03-20T05:38:52;8.80;99.90
2729;DHT22;1372;47.956;7.830;2023-03-20T05:41:25;8.80;99.90
2729;DHT22;1372;47.956;7.830;2023-03-20T05:43:55;8.80;99.90
2729;DHT22;1372;47.956;7.830;2023-03-20T05:46:31;8.80;99.90
2729;DHT22;1372;47.956;7.830;2023-03-20T05:49:04;8.80;99.90
2729;DHT22;1372;47.956;7.830;2023-03-20T05:51:38;8.80;99.90
2729;DHT22;1372;47.956;7.830;2023-03-20T05:54:14;8.80;99.90
2729;DHT22;1372;47.956;7.830;2023-03-20T05:56:49;8.90;99.90
2729;DHT22;1372;47.956;7.830;2023-03-20T05:59:21;8.90;99.90
2729;DHT22;1372;47.956;7.830;2023-03-20T06:01:56;8.80;99.90
2729;DHT22;1372;47.956;7.830;2023-03-20T06:04:29;8.90;99.90
2729;DHT22;1372;47.956;7.830;2023-03-20T06:07:02;8.90;99.90
2729;DHT22;1372;47.956;7.830;2023-03-20T06:09:35;8.80;99.90
2729;DHT22;1372;47.956;7.830;2023-03-20T06:12:07;8.80;99.90
2729;DHT22;1372;47.956;7.830;2023-03-20T06:14:40;8.80;99.90
2729;DHT22;1372;47.956;7.830;2023-03-20T06:17:16;8.70;99.90
2729;DHT22;1372;47.956;7.830;2023-03-20T06:20:06;8.70;99.90
2729;DHT22;1372;47.956;7.830;2023-03-20T06:22:40;8.90;99.90
2729;DHT22;1372;47.956;7.830;2023-03-20T06:25:13;8.90;99.90
2729;DHT22;1372;47.956;7.830;2023-03-20T06:27:46;8.90;99.90
2729;DHT22;1372;47.956;7.830;2023-03-20T06:30:22;8.90;99.90
2729;DHT22;1372;47.956;7.830;2023-03-20T06:32:57;8.90;99.90
2729;DHT22;1372;47.956;7.830;2023-03-20T06:35:30;9.00;99.90
2729;DHT22;1372;47.956;7.830;2023-03-20T06:38:04;8.90;99.90
2729;DHT22;1372;47.956;7.830;2023-03-20T06:40:38;8.90;99.90
2729;DHT22;1372;47.956;7.830;2023-03-20T06:43:12;8.90;99.90
2729;DHT22;1372;47.956;7.830;2023-03-20T06:45:48;9.00;99.90
2729;DHT22;1372;47.956;7.830;2023-03-20T06:48:27;9.00;99.90
2729;DHT22;1372;47.956;7.830;2023-03-20T06:51:00;9.10;99.90
2729;DHT22;1372;47.956;7.830;2023-03-20T06:53:33;9.20;99.90
2729;DHT22;1372;47.956;7.830;2023-03-20T06:56:10;9.30;99.90
2729;DHT22;1372;47.956;7.830;2023-03-20T06:58:44;9.30;99.90
2729;DHT22;1372;47.956;7.830;2023-03-20T07:01:19;9.30;99.90
2729;DHT22;1372;47.956;7.830;2023-03-20T07:03:59;9.40;99.90
2729;DHT22;1372;47.956;7.830;2023-03-20T07:06:32;9.50;99.90
2729;DHT22;1372;47.956;7.830;2023-03-20T07:09:05;9.40;99.90
2729;DHT22;1372;47.956;7.830;2023-03-20T07:11:37;9.30;99.90
2729;DHT22;1372;47.956;7.830;2023-03-20T07:14:10;9.40;99.90
2729;DHT22;1372;47.956;7.830;2023-03-20T07:16:43;9.40;99.90
2729;DHT22;1372;47.956;7.830;2023-03-20T07:19:19;9.40;99.90
2729;DHT22;1372;47.956;7.830;2023-03-20T07:21:58;9.50;99.90
2729;DHT22;1372;47.956;7.830;2023-03-20T07:24:32;9.50;99.90
2729;DHT22;1372;47.956;7.830;2023-03-20T07:27:05;9.60;99.90
2729;DHT22;1372;47.956;7.830;2023-03-20T07:29:38;9.60;99.90
2729;DHT22;1372;47.956;7.830;2023-03-20T07:32:16;9.70;99.90
2729;DHT22;1372;47.956;7.830;2023-03-20T07:34:51;9.70;99.90
2729;DHT22;1372;47.956;7.830;2023-03-20T07:37:24;9.80;99.90
2729;DHT22;1372;47.956;7.830;2023-03-20T07:39:56;9.80;99.90
2729;DHT22;1372;47.956;7.830;2023-03-20T07:42:31;9.90;99.90
2729;DHT22;1372;47.956;7.830;2023-03-20T07:45:08;9.90;99.90
2729;DHT22;1372;47.956;7.830;2023-03-20T07:47:42;9.90;99.90
2729;DHT22;1372;47.956;7.830;2023-03-20T07:50:19;9.90;99.90
2729;DHT22;1372;47.956;7.830;2023-03-20T07:52:53;9.80;99.90
2729;DHT22;1372;47.956;7.830;2023-03-20T07:55:26;9.80;99.90
2729;DHT22;1372;47.956;7.830;2023-03-20T07:58:01;9.70;99.90
2729;DHT22;1372;47.956;7.830;2023-03-20T08:00:33;9.70;99.90
2729;DHT22;1372;47.956;7.830;2023-03-20T08:03:06;9.80;99.90
2729;DHT22;1372;47.956;7.830;2023-03-20T08:05:43;9.80;99.90
2729;DHT22;1372;47.956;7.830;2023-03-20T08:08:18;9.90;99.90
2729;DHT22;1372;47.956;7.830;2023-03-20T08:10:53;10.00;99.90
2729;DHT22;1372;47.956;7.830;2023-03-20T08:13:26;10.00;99.90
2729;DHT22;1372;47.956;7.830;2023-03-20T08:16:00;10.10;99.90
2729;DHT22;1372;47.956;7.830;2023-03-20T08:18:36;10.00;99.90
2729;DHT22;1372;47.956;7.830;2023-03-20T08:21:12;10.10;99.90
2729;DHT22;1372;47.956;7.830;2023-03-20T08:23:47;10.00;99.90
2729;DHT22;1372;47.956;7.830;2023-03-20T08:26:20;10.00;99.90
2729;DHT22;1372;47.956;7.830;2023-03-20T08:28:53;10.10;99.90
2729;DHT22;1372;47.956;7.830;2023-03-20T08:31:26;10.10;99.90
2729;DHT22;1372;47.956;7.830;2023-03-20T08:33:59;10.10;99.90
2729;DHT22;1372;47.956;7.830;2023-03-20T08:36:35;10.00;99.90
2729;DHT22;1372;47.956;7.830;2023-03-20T08:39:08;10.00;99.90
2729;DHT22;1372;47.956;7.830;2023-03-20T08:41:42;10.00;99.90
2729;DHT22;1372;47.956;7.830;2023-03-20T08:44:15;10.20;99.90
2729;DHT22;1372;47.956;7.830;2023-03-20T08:46:51;10.20;99.90
2729;DHT22;1372;47.956;7.830;2023-03-20T08:49:28;10.30;99.90
2729;DHT22;1372;47.956;7.830;2023-03-20T08:52:04;10.30;99.90
2729;DHT22;1372;47.956;7.830;2023-03-20T08:54:38;10.20;99.90
2729;DHT22;1372;47.956;7.830;2023-03-20T08:57:11;10.30;99.90
2729;DHT22;1372;47.956;7.830;2023-03-20T08:59:42;10.30;99.90
2729;DHT22;1372;47.956;7.830;2023-03-20T09:02:13;10.40;99.90
2729;DHT22;1372;47.956;7.830;2023-03-20T09:04:45;10.50;99.90
2729;DHT22;1372;47.956;7.830;2023-03-20T09:07:17;10.40;99.90
2729;DHT22;1372;47.956;7.830;2023-03-20T09:09:48;10.60;99.90
2729;DHT22;1372;47.956;7.830;2023-03-20T09:12:21;10.50;99.90
2729;DHT22;1372;47.956;7.830;2023-03-20T09:14:53;10.70;99.90
2729;DHT22;1372;47.956;7.830;2023-03-20T09:17:27;10.80;99.90
2729;DHT22;1372;47.956;7.830;2023-03-20T09:20:00;10.80;99.90
2729;DHT22;1372;47.956;7.830;2023-03-20T09:22:35;10.80;99.90
2729;DHT22;1372;47.956;7.830;2023-03-20T09:25:10;10.90;99.90
2729;DHT22;1372;47.956;7.830;2023-03-20T09:27:45;11.00;99.90
2729;DHT22;1372;47.956;7.830;2023-03-20T09:30:22;11.10;99.90
2729;DHT22;1372;47.956;7.830;2023-03-20T09:32:55;11.20;99.90
2729;DHT22;1372;47.956;7.830;2023-03-20T09:35:30;11.30;99.90
2729;DHT22;1372;47.956;7.830;2023-03-20T09:38:05;11.30;99.90
2729;DHT22;1372;47.956;7.830;2023-03-20T09:40:49;11.40;99.90
2729;DHT22;1372;47.956;7.830;2023-03-20T09:43:39;11.60;99.90
2729;DHT22;1372;47.956;7.830;2023-03-20T09:46:35;11.70;99.90
2729;DHT22;1372;47.956;7.830;2023-03-20T09:49:46;11.80;99.90
2729;DHT22;1372;47.956;7.830;2023-03-20T09:52:29;11.90;99.90
2729;DHT22;1372;47.956;7.830;2023-03-20T09:55:11;12.00;99.90
2729;DHT22;1372;47.956;7.830;2023-03-20T09:57:48;12.20;99.90
2729;DHT22;1372;47.956;7.830;2023-03-20T10:00:26;12.30;99.90
2729;DHT22;1372;47.956;7.830;2023-03-20T10:03:01;12.40;99.90
2729;DHT22;1372;47.956;7.830;2023-03-20T10:05:41;12.50;99.90
2729;DHT22;1372;47.956;7.830;2023-03-20T10:08:20;12.50;99.90
2729;DHT22;1372;47.956;7.830;2023-03-20T10:11:10;12.50;99.90
2729;DHT22;1372;47.956;7.830;2023-03-20T10:14:04;12.50;99.90
2729;DHT22;1372;47.956;7.830;2023-03-20T10:16:53;12.60;99.90
2729;DHT22;1372;47.956;7.830;2023-03-20T10:19:47;12.30;99.90
2729;DHT22;1372;47.956;7.830;2023-03-20T10:22:27;12.10;99.90
2729;DHT22;1372;47.956;7.830;2023-03-20T10:25:13;12.10;99.90
2729;DHT22;1372;47.956;7.830;2023-03-20T10:27:57;12.20;99.90
2729;DHT22;1372;47.956;7.830;2023-03-20T10:30:46;12.10;99.90
2729;DHT22;1372;47.956;7.830;2023-03-20T10:33:34;12.10;99.90
2729;DHT22;1372;47.956;7.830;2023-03-20T10:36:30;12.10;99.90
2729;DHT22;1372;47.956;7.830;2023-03-20T10:39:18;12.20;99.90
2729;DHT22;1372;47.956;7.830;2023-03-20T10:42:03;12.30;99.90
2729;DHT22;1372;47.956;7.830;2023-03-20T10:44:49;12.10;99.90
2729;DHT22;1372;47.956;7.830;2023-03-20T10:47:27;12.10;99.90
2729;DHT22;1372;47.956;7.830;2023-03-20T10:50:04;12.20;99.90
2729;DHT22;1372;47.956;7.830;2023-03-20T10:52:40;12.20;99.90
2729;DHT22;1372;47.956;7.830;2023-03-20T10:55:17;12.30;99.90
2729;DHT22;1372;47.956;7.830;2023-03-20T10:57:55;12.20;99.90
2729;DHT22;1372;47.956;7.830;2023-03-20T11:00:33;12.30;99.90
2729;DHT22;1372;47.956;7.830;2023-03-20T11:03:08;12.20;99.90
2729;DHT22;1372;47.956;7.830;2023-03-20T11:05:53;12.40;99.90
2729;DHT22;1372;47.956;7.830;2023-03-20T11:08:40;12.40;99.90
2729;DHT22;1372;47.956;7.830;2023-03-20T11:11:21;12.40;99.90
2729;DHT22;1372;47.956;7.830;2023-03-20T11:14:09;12.50;99.90
2729;DHT22;1372;47.956;7.830;2023-03-20T11:16:52;12.70;99.90
2729;DHT22;1372;47.956;7.830;2023-03-20T11:19:26;12.80;99.90
2729;DHT22;1372;47.956;7.830;2023-03-20T11:22:01;13.00;99.90
2729;DHT22;1372;47.956;7.830;2023-03-20T11:24:43;12.90;99.90
2729;DHT22;1372;47.956;7.830;2023-03-20T11:27:23;13.00;99.90
2729;DHT22;1372;47.956;7.830;2023-03-20T11:29:57;13.00;99.90
2729;DHT22;1372;47.956;7.830;2023-03-20T11:32:35;13.10;99.90
2729;DHT22;1372;47.956;7.830;2023-03-20T11:35:20;13.10;99.90
2729;DHT22;1372;47.956;7.830;2023-03-20T11:38:11;13.00;99.90
2729;DHT22;1372;47.956;7.830;2023-03-20T11:40:46;13.00;99.90
2729;DHT22;1372;47.956;7.830;2023-03-20T11:43:24;13.00;99.90
2729;DHT22;1372;47.956;7.830;2023-03-20T11:45:59;12.90;99.90
2729;DHT22;1372;47.956;7.830;2023-03-20T11:48:38;13.00;99.90
2729;DHT22;1372;47.956;7.830;2023-03-20T11:51:15;13.00;99.90
2729;DHT22;1372;47.956;7.830;2023-03-20T11:53:59;13.10;99.90
2729;DHT22;1372;47.956;7.830;2023-03-20T11:56:34;13.00;99.90
2729;DHT22;1372;47.956;7.830;2023-03-20T11:59:13;13.00;99.90
2729;DHT22;1372;47.956;7.830;2023-03-20T12:01:49;13.00;99.90
2729;DHT22;1372;47.956;7.830;2023-03-20T12:04:28;13.00;99.90
2729;DHT22;1372;47.956;7.830;2023-03-20T12:07:09;13.00;99.90
2729;DHT22;1372;47.956;7.830;2023-03-20T12:09:47;13.00;99.90
2729;DHT22;1372;47.956;7.830;2023-03-20T12:12:32;13.00;99.90
2729;DHT22;1372;47.956;7.830;2023-03-20T12:15:17;13.20;99.90
2729;DHT22;1372;47.956;7.830;2023-03-20T12:17:55;13.20;99.90
2729;DHT22;1372;47.956;7.830;2023-03-20T12:20:37;13.40;99.90
2729;DHT22;1372;47.956;7.830;2023-03-20T12:23:23;13.40;99.90
2729;DHT22;1372;47.956;7.830;2023-03-20T12:26:03;13.40;99.90
2729;DHT22;1372;47.956;7.830;2023-03-20T12:28:42;13.60;99.90
2729;DHT22;1372;47.956;7.830;2023-03-20T12:31:23;13.50;99.90
2729;DHT22;1372;47.956;7.830;2023-03-20T12:34:00;13.30;99.90
2729;DHT22;1372;47.956;7.830;2023-03-20T12:36:43;13.30;99.90
2729;DHT22;1372;47.956;7.830;2023-03-20T12:39:18;13.40;99.90
2729;DHT22;1372;47.956;7.830;2023-03-20T12:42:05;13.50;99.90
2729;DHT22;1372;47.956;7.830;2023-03-20T12:44:47;13.80;99.90
2729;DHT22;1372;47.956;7.830;2023-03-20T12:47:42;14.00;99.90
2729;DHT22;1372;47.956;7.830;2023-03-20T12:50:29;14.10;99.90
2729;DHT22;1372;47.956;7.830;2023-03-20T12:53:23;14.20;99.90
2729;DHT22;1372;47.956;7.830;2023-03-20T12:56:12;14.10;99.90
2729;DHT22;1372;47.956;7.830;2023-03-20T12:59:00;14.10;99.90
2729;DHT22;1372;47.956;7.830;2023-03-20T13:01:40;14.20;99.90
2729;DHT22;1372;47.956;7.830;2023-03-20T13:04:40;14.20;99.90
2729;DHT22;1372;47.956;7.830;2023-03-20T13:07:34;14.20;99.90
2729;DHT22;1372;47.956;7.830;2023-03-20T13:10:18;14.10;99.90
2729;DHT22;1372;47.956;7.830;2023-03-20T13:13:06;14.00;99.90
2729;DHT22;1372;47.956;7.830;2023-03-20T13:15:54;13.90;99.90
2729;DHT22;1372;47.956;7.830;2023-03-20T13:18:43;13.80;99.90
2729;DHT22;1372;47.956;7.830;2023-03-20T13:21:30;13.90;99.90
2729;DHT22;1372;47.956;7.830;2023-03-20T13:24:21;14.10;99.90
2729;DHT22;1372;47.956;7.830;2023-03-20T13:30:00;14.30;99.90
2729;DHT22;1372;47.956;7.830;2023-03-20T13:32:44;14.20;99.90
2729;DHT22;1372;47.956;7.830;2023-03-20T13:35:41;14.20;99.90
2729;DHT22;1372;47.956;7.830;2023-03-20T13:38:19;14.20;99.90
2729;DHT22;1372;47.956;7.830;2023-03-20T13:40:57;14.10;99.90
2729;DHT22;1372;47.956;7.830;2023-03-20T13:43:34;14.10;99.90
2729;DHT22;1372;47.956;7.830;2023-03-20T13:46:13;14.00;99.90
2729;DHT22;1372;47.956;7.830;2023-03-20T13:48:51;14.20;99.90
2729;DHT22;1372;47.956;7.830;2023-03-20T13:51:28;14.00;99.90
2729;DHT22;1372;47.956;7.830;2023-03-20T13:54:11;13.90;99.90
2729;DHT22;1372;47.956;7.830;2023-03-20T13:56:58;13.90;99.90
2729;DHT22;1372;47.956;7.830;2023-03-20T13:59:58;13.90;99.90
2729;DHT22;1372;47.956;7.830;2023-03-20T14:02:49;13.80;99.90
2729;DHT22;1372;47.956;7.830;2023-03-20T14:05:37;13.70;99.90
2729;DHT22;1372;47.956;7.830;2023-03-20T14:08:22;13.60;99.90
2729;DHT22;1372;47.956;7.830;2023-03-20T14:11:13;13.60;99.90
2729;DHT22;1372;47.956;7.830;2023-03-20T14:14:05;13.70;99.90
2729;DHT22;1372;47.956;7.830;2023-03-20T14:20:12;13.50;99.90
2729;DHT22;1372;47.956;7.830;2023-03-20T14:23:03;13.60;99.90
2729;DHT22;1372;47.956;7.830;2023-03-20T14:25:43;13.60;99.90
2729;DHT22;1372;47.956;7.830;2023-03-20T14:28:27;13.60;99.90
2729;DHT22;1372;47.956;7.830;2023-03-20T14:31:12;13.70;99.90
2729;DHT22;1372;47.956;7.830;2023-03-20T14:37:00;13.80;99.90
2729;DHT22;1372;47.956;7.830;2023-03-20T14:39:45;13.90;99.90
2729;DHT22;1372;47.956;7.830;2023-03-20T14:42:46;13.90;99.90
2729;DHT22;1372;47.956;7.830;2023-03-20T14:45:42;14.00;99.90
2729;DHT22;1372;47.956;7.830;2023-03-20T14:48:29;14.00;99.90
2729;DHT22;1372;47.956;7.830;2023-03-20T14:51:29;14.10;99.90
2729;DHT22;1372;47.956;7.830;2023-03-20T14:55:12;14.00;99.90
2729;DHT22;1372;47.956;7.830;2023-03-20T14:57:56;14.00;99.90
2729;DHT22;1372;47.956;7.830;2023-03-20T15:01:56;14.00;99.90
2729;DHT22;1372;47.956;7.830;2023-03-20T15:04:37;14.30;99.90
2729;DHT22;1372;47.956;7.830;2023-03-20T15:07:13;14.20;99.90
2729;DHT22;1372;47.956;7.830;2023-03-20T15:09:46;14.10;99.90
2729;DHT22;1372;47.956;7.830;2023-03-20T15:12:20;14.20;99.90
2729;DHT22;1372;47.956;7.830;2023-03-20T15:15:02;14.40;99.90
2729;DHT22;1372;47.956;7.830;2023-03-20T15:17:37;14.70;99.90
2729;DHT22;1372;47.956;7.830;2023-03-20T15:20:15;15.00;99.90
2729;DHT22;1372;47.956;7.830;2023-03-20T15:22:50;15.10;99.90
2729;DHT22;1372;47.956;7.830;2023-03-20T15:25:30;15.00;99.90
2729;DHT22;1372;47.956;7.830;2023-03-20T15:28:04;15.10;99.90
2729;DHT22;1372;47.956;7.830;2023-03-20T15:30:40;15.20;99.90
2729;DHT22;1372;47.956;7.830;2023-03-20T15:33:14;15.10;99.90
2729;DHT22;1372;47.956;7.830;2023-03-20T15:35:50;15.00;99.90
2729;DHT22;1372;47.956;7.830;2023-03-20T15:38:28;15.20;99.90
2729;DHT22;1372;47.956;7.830;2023-03-20T15:41:04;15.20;99.90
2729;DHT22;1372;47.956;7.830;2023-03-20T15:44:03;15.20;99.90
2729;DHT22;1372;47.956;7.830;2023-03-20T15:46:55;15.40;99.90
2729;DHT22;1372;47.956;7.830;2023-03-20T15:49:33;15.30;99.90
2729;DHT22;1372;47.956;7.830;2023-03-20T15:52:13;15.50;99.90
2729;DHT22;1372;47.956;7.830;2023-03-20T15:54:48;15.90;99.90
2729;DHT22;1372;47.956;7.830;2023-03-20T15:57:20;16.10;99.90
2729;DHT22;1372;47.956;7.830;2023-03-20T15:59:55;16.20;99.90
2729;DHT22;1372;47.956;7.830;2023-03-20T16:02:32;16.10;99.90
2729;DHT22;1372;47.956;7.830;2023-03-20T16:05:09;16.30;99.90
2729;DHT22;1372;47.956;7.830;2023-03-20T16:07:42;16.30;99.90
2729;DHT22;1372;47.956;7.830;2023-03-20T16:10:17;16.30;99.90
2729;DHT22;1372;47.956;7.830;2023-03-20T16:12:50;16.50;99.90
2729;DHT22;1372;47.956;7.830;2023-03-20T16:15:24;16.80;99.90
2729;DHT22;1372;47.956;7.830;2023-03-20T16:18:02;16.80;99.90
2729;DHT22;1372;47.956;7.830;2023-03-20T16:20:36;17.00;99.90
2729;DHT22;1372;47.956;7.830;2023-03-20T16:23:08;17.20;99.90
2729;DHT22;1372;47.956;7.830;2023-03-20T16:25:41;17.40;99.90
2729;DHT22;1372;47.956;7.830;2023-03-20T16:28:14;17.90;99.90
2729;DHT22;1372;47.956;7.830;2023-03-20T16:30:47;18.20;99.90
2729;DHT22;1372;47.956;7.830;2023-03-20T16:33:22;18.00;99.90
2729;DHT22;1372;47.956;7.830;2023-03-20T16:35:53;18.10;99.90
2729;DHT22;1372;47.956;7.830;2023-03-20T16:38:30;17.90;99.90
2729;DHT22;1372;47.956;7.830;2023-03-20T16:41:15;17.30;99.90
2729;DHT22;1372;47.956;7.830;2023-03-20T16:43:53;16.40;99.90
2729;DHT22;1372;47.956;7.830;2023-03-20T16:46:26;15.80;99.90
2729;DHT22;1372;47.956;7.830;2023-03-20T16:49:13;15.40;99.90
2729;DHT22;1372;47.956;7.830;2023-03-20T16:52:12;15.20;99.90
2729;DHT22;1372;47.956;7.830;2023-03-20T16:54:43;14.70;99.90
2729;DHT22;1372;47.956;7.830;2023-03-20T16:57:15;14.50;99.90
2729;DHT22;1372;47.956;7.830;2023-03-20T16:59:45;14.30;99.90
2729;DHT22;1372;47.956;7.830;2023-03-20T17:02:27;14.10;99.90
2729;DHT22;1372;47.956;7.830;2023-03-20T17:05:03;13.80;99.90
2729;DHT22;1372;47.956;7.830;2023-03-20T17:07:37;13.40;99.90
2729;DHT22;1372;47.956;7.830;2023-03-20T17:10:17;13.20;99.90
2729;DHT22;1372;47.956;7.830;2023-03-20T17:12:51;12.80;99.90
2729;DHT22;1372;47.956;7.830;2023-03-20T17:15:23;12.50;99.90
2729;DHT22;1372;47.956;7.830;2023-03-20T17:17:54;12.40;99.90
2729;DHT22;1372;47.956;7.830;2023-03-20T17:20:27;12.40;99.90
2729;DHT22;1372;47.956;7.830;2023-03-20T17:23:02;12.20;99.90
2729;DHT22;1372;47.956;7.830;2023-03-20T17:25:34;12.00;99.90
2729;DHT22;1372;47.956;7.830;2023-03-20T17:28:15;11.80;99.90
2729;DHT22;1372;47.956;7.830;2023-03-20T17:30:49;11.50;99.90
2729;DHT22;1372;47.956;7.830;2023-03-20T17:33:21;11.30;99.90
2729;DHT22;1372;47.956;7.830;2023-03-20T17:35:54;11.10;99.90
2729;DHT22;1372;47.956;7.830;2023-03-20T17:38:29;11.00;99.90